Albers, Illinois
Current Conditions -  °F | °C
As of 9:58 AM on Friday 28 Nov 2014 (Local Time) from KBLV Reporting Station
Clear Clear  
Wind Chill: 25°   Ceiling: Unl
Heat Index: 35°   Visibility: 10mi
Dew Point: 31°   Wind: 17mph
Humidity: 84%   Direction: 170°S
Pressure: 30.2"   Gusts: 30mph
Location:  38.54°N, 89.61°W
Report Text: KBLV 281558Z AUTO 17015G26KT 10SM CLR 02/M01 A3020 RMK AO2 PK WND 17026/46 SLP235 T00171007
Loading
Personal Weather Stations






























Interactive Weather Map New forecast layout! Learn more

10-Day Weather Forecast

Advertisements
Track Severe Weather on mobile